sensor_id;sensor_type;location;lat;lon;timestamp;P1;durP1;ratioP1;P2;durP2;ratioP2
2966;SDS011;1493;51.496;7.210;2023-02-02T00:01:55;4.77;;;2.70;;
2966;SDS011;1493;51.496;7.210;2023-02-02T00:04:24;10.97;;;3.43;;
2966;SDS011;1493;51.496;7.210;2023-02-02T00:06:53;10.43;;;2.87;;
2966;SDS011;1493;51.496;7.210;2023-02-02T00:09:21;4.43;;;3.10;;
2966;SDS011;1493;51.496;7.210;2023-02-02T00:11:49;5.30;;;2.77;;
2966;SDS011;1493;51.496;7.210;2023-02-02T00:14:16;8.07;;;3.50;;
2966;SDS011;1493;51.496;7.210;2023-02-02T00:16:44;7.97;;;3.57;;
2966;SDS011;1493;51.496;7.210;2023-02-02T00:19:12;6.53;;;3.50;;
2966;SDS011;1493;51.496;7.210;2023-02-02T00:21:41;4.43;;;3.00;;
2966;SDS011;1493;51.496;7.210;2023-02-02T00:24:09;5.60;;;3.57;;
2966;SDS011;1493;51.496;7.210;2023-02-02T00:26:37;7.80;;;3.40;;
2966;SDS011;1493;51.496;7.210;2023-02-02T00:29:07;5.93;;;4.33;;
2966;SDS011;1493;51.496;7.210;2023-02-02T00:31:38;7.50;;;4.30;;
2966;SDS011;1493;51.496;7.210;2023-02-02T00:34:05;8.03;;;4.90;;
2966;SDS011;1493;51.496;7.210;2023-02-02T00:36:31;6.83;;;4.87;;
2966;SDS011;1493;51.496;7.210;2023-02-02T00:38:58;6.57;;;4.30;;
2966;SDS011;1493;51.496;7.210;2023-02-02T00:41:25;7.20;;;4.03;;
2966;SDS011;1493;51.496;7.210;2023-02-02T00:43:52;7.43;;;4.50;;
2966;SDS011;1493;51.496;7.210;2023-02-02T00:46:34;13.20;;;3.93;;
2966;SDS011;1493;51.496;7.210;2023-02-02T00:49:04;8.60;;;6.57;;
2966;SDS011;1493;51.496;7.210;2023-02-02T00:51:31;9.30;;;6.27;;
2966;SDS011;1493;51.496;7.210;2023-02-02T00:53:58;5.90;;;4.57;;
2966;SDS011;1493;51.496;7.210;2023-02-02T00:56:25;11.43;;;5.00;;
2966;SDS011;1493;51.496;7.210;2023-02-02T00:58:51;5.67;;;4.20;;
2966;SDS011;1493;51.496;7.210;2023-02-02T01:01:18;9.60;;;4.37;;
2966;SDS011;1493;51.496;7.210;2023-02-02T01:03:48;9.30;;;4.73;;
2966;SDS011;1493;51.496;7.210;2023-02-02T01:06:15;7.67;;;3.70;;
2966;SDS011;1493;51.496;7.210;2023-02-02T01:08:42;9.60;;;4.13;;
2966;SDS011;1493;51.496;7.210;2023-02-02T01:11:09;7.00;;;3.00;;
2966;SDS011;1493;51.496;7.210;2023-02-02T01:13:36;6.93;;;3.30;;
2966;SDS011;1493;51.496;7.210;2023-02-02T01:16:03;6.93;;;3.10;;
2966;SDS011;1493;51.496;7.210;2023-02-02T01:18:31;6.30;;;2.90;;
2966;SDS011;1493;51.496;7.210;2023-02-02T01:21:01;4.90;;;2.57;;
2966;SDS011;1493;51.496;7.210;2023-02-02T01:23:29;4.80;;;2.40;;
2966;SDS011;1493;51.496;7.210;2023-02-02T01:25:57;8.10;;;2.67;;
2966;SDS011;1493;51.496;7.210;2023-02-02T01:28:25;4.80;;;2.33;;
2966;SDS011;1493;51.496;7.210;2023-02-02T01:30:53;7.83;;;2.93;;
2966;SDS011;1493;51.496;7.210;2023-02-02T01:33:20;5.17;;;2.60;;
2966;SDS011;1493;51.496;7.210;2023-02-02T01:35:47;7.67;;;2.97;;
2966;SDS011;1493;51.496;7.210;2023-02-02T01:38:16;6.10;;;3.47;;
2966;SDS011;1493;51.496;7.210;2023-02-02T01:40:43;4.23;;;3.20;;
2966;SDS011;1493;51.496;7.210;2023-02-02T01:43:14;12.43;;;3.50;;
2966;SDS011;1493;51.496;7.210;2023-02-02T01:45:49;6.00;;;3.20;;
2966;SDS011;1493;51.496;7.210;2023-02-02T01:48:16;9.23;;;3.90;;
2966;SDS011;1493;51.496;7.210;2023-02-02T01:50:45;10.03;;;3.97;;
2966;SDS011;1493;51.496;7.210;2023-02-02T01:53:17;4.83;;;3.13;;
2966;SDS011;1493;51.496;7.210;2023-02-02T01:55:45;9.10;;;4.00;;
2966;SDS011;1493;51.496;7.210;2023-02-02T01:58:14;8.00;;;3.40;;
2966;SDS011;1493;51.496;7.210;2023-02-02T02:00:44;8.47;;;3.53;;
2966;SDS011;1493;51.496;7.210;2023-02-02T02:03:12;9.57;;;3.97;;
2966;SDS011;1493;51.496;7.210;2023-02-02T02:05:43;8.87;;;4.73;;
2966;SDS011;1493;51.496;7.210;2023-02-02T02:08:14;13.90;;;4.70;;
2966;SDS011;1493;51.496;7.210;2023-02-02T02:10:45;13.87;;;4.97;;
2966;SDS011;1493;51.496;7.210;2023-02-02T02:13:12;14.93;;;5.97;;
2966;SDS011;1493;51.496;7.210;2023-02-02T02:15:41;10.73;;;6.67;;
2966;SDS011;1493;51.496;7.210;2023-02-02T02:18:31;10.20;;;5.57;;
2966;SDS011;1493;51.496;7.210;2023-02-02T02:33:38;12.53;;;6.23;;
2966;SDS011;1493;51.496;7.210;2023-02-02T02:36:15;27.60;;;7.53;;
2966;SDS011;1493;51.496;7.210;2023-02-02T02:38:47;16.50;;;7.00;;
2966;SDS011;1493;51.496;7.210;2023-02-02T02:41:20;19.83;;;6.63;;
2966;SDS011;1493;51.496;7.210;2023-02-02T02:43:49;21.37;;;6.70;;
2966;SDS011;1493;51.496;7.210;2023-02-02T02:46:20;18.23;;;6.77;;
2966;SDS011;1493;51.496;7.210;2023-02-02T02:48:49;18.40;;;6.90;;
2966;SDS011;1493;51.496;7.210;2023-02-02T02:54:10;20.87;;;5.77;;
2966;SDS011;1493;51.496;7.210;2023-02-02T02:56:40;15.97;;;6.17;;
2966;SDS011;1493;51.496;7.210;2023-02-02T02:59:21;21.93;;;6.40;;
2966;SDS011;1493;51.496;7.210;2023-02-02T03:02:00;14.60;;;6.40;;
2966;SDS011;1493;51.496;7.210;2023-02-02T03:04:44;14.80;;;4.20;;
2966;SDS011;1493;51.496;7.210;2023-02-02T03:07:17;18.93;;;7.37;;
2966;SDS011;1493;51.496;7.210;2023-02-02T03:09:49;11.57;;;4.13;;
2966;SDS011;1493;51.496;7.210;2023-02-02T03:12:18;8.53;;;3.43;;
2966;SDS011;1493;51.496;7.210;2023-02-02T03:14:44;12.43;;;4.77;;
2966;SDS011;1493;51.496;7.210;2023-02-02T03:17:11;22.47;;;5.63;;
2966;SDS011;1493;51.496;7.210;2023-02-02T03:19:38;17.53;;;3.80;;
2966;SDS011;1493;51.496;7.210;2023-02-02T03:22:06;13.03;;;5.40;;
2966;SDS011;1493;51.496;7.210;2023-02-02T03:24:33;13.20;;;4.33;;
2966;SDS011;1493;51.496;7.210;2023-02-02T03:27:00;7.13;;;3.50;;
2966;SDS011;1493;51.496;7.210;2023-02-02T03:29:27;13.03;;;3.37;;
2966;SDS011;1493;51.496;7.210;2023-02-02T03:31:54;6.10;;;2.87;;
2966;SDS011;1493;51.496;7.210;2023-02-02T03:34:21;6.17;;;2.77;;
2966;SDS011;1493;51.496;7.210;2023-02-02T03:36:48;12.03;;;2.87;;
2966;SDS011;1493;51.496;7.210;2023-02-02T03:39:16;11.20;;;3.53;;
2966;SDS011;1493;51.496;7.210;2023-02-02T03:41:43;7.70;;;3.93;;
2966;SDS011;1493;51.496;7.210;2023-02-02T03:44:10;8.60;;;3.90;;
2966;SDS011;1493;51.496;7.210;2023-02-02T03:46:36;9.80;;;2.93;;
2966;SDS011;1493;51.496;7.210;2023-02-02T03:49:03;16.23;;;3.40;;
2966;SDS011;1493;51.496;7.210;2023-02-02T03:51:30;5.77;;;2.47;;
2966;SDS011;1493;51.496;7.210;2023-02-02T03:53:57;18.83;;;3.90;;
2966;SDS011;1493;51.496;7.210;2023-02-02T03:56:25;18.27;;;4.77;;
2966;SDS011;1493;51.496;7.210;2023-02-02T03:58:52;10.17;;;3.20;;
2966;SDS011;1493;51.496;7.210;2023-02-02T04:01:24;18.07;;;3.80;;
2966;SDS011;1493;51.496;7.210;2023-02-02T04:03:53;10.53;;;3.80;;
2966;SDS011;1493;51.496;7.210;2023-02-02T04:06:19;9.17;;;3.37;;
2966;SDS011;1493;51.496;7.210;2023-02-02T04:08:46;9.27;;;3.40;;
2966;SDS011;1493;51.496;7.210;2023-02-02T04:11:13;7.67;;;4.10;;
2966;SDS011;1493;51.496;7.210;2023-02-02T04:13:41;11.60;;;4.40;;
2966;SDS011;1493;51.496;7.210;2023-02-02T04:16:08;7.73;;;4.10;;
2966;SDS011;1493;51.496;7.210;2023-02-02T04:18:36;11.23;;;4.83;;
2966;SDS011;1493;51.496;7.210;2023-02-02T04:21:03;11.23;;;5.63;;
2966;SDS011;1493;51.496;7.210;2023-02-02T04:23:31;10.43;;;5.17;;
2966;SDS011;1493;51.496;7.210;2023-02-02T04:25:58;7.93;;;5.90;;
2966;SDS011;1493;51.496;7.210;2023-02-02T04:28:26;11.80;;;5.50;;
2966;SDS011;1493;51.496;7.210;2023-02-02T04:30:54;11.93;;;5.93;;
2966;SDS011;1493;51.496;7.210;2023-02-02T04:33:22;19.50;;;8.30;;
2966;SDS011;1493;51.496;7.210;2023-02-02T04:38:24;16.83;;;8.07;;
2966;SDS011;1493;51.496;7.210;2023-02-02T04:40:51;13.10;;;9.40;;
2966;SDS011;1493;51.496;7.210;2023-02-02T04:43:18;12.10;;;8.10;;
2966;SDS011;1493;51.496;7.210;2023-02-02T04:45:44;17.33;;;8.63;;
2966;SDS011;1493;51.496;7.210;2023-02-02T04:48:12;14.57;;;9.57;;
2966;SDS011;1493;51.496;7.210;2023-02-02T04:50:39;22.17;;;12.50;;
2966;SDS011;1493;51.496;7.210;2023-02-02T04:53:06;21.97;;;12.90;;
2966;SDS011;1493;51.496;7.210;2023-02-02T04:55:35;19.10;;;12.63;;
2966;SDS011;1493;51.496;7.210;2023-02-02T04:58:02;30.67;;;14.37;;
2966;SDS011;1493;51.496;7.210;2023-02-02T05:00:29;29.83;;;16.73;;
2966;SDS011;1493;51.496;7.210;2023-02-02T05:02:56;30.17;;;14.83;;
2966;SDS011;1493;51.496;7.210;2023-02-02T05:05:24;30.70;;;15.17;;
2966;SDS011;1493;51.496;7.210;2023-02-02T05:07:51;37.50;;;16.57;;
2966;SDS011;1493;51.496;7.210;2023-02-02T05:10:18;39.37;;;17.40;;
2966;SDS011;1493;51.496;7.210;2023-02-02T05:12:45;29.13;;;15.13;;
2966;SDS011;1493;51.496;7.210;2023-02-02T05:15:12;27.00;;;14.30;;
2966;SDS011;1493;51.496;7.210;2023-02-02T05:17:38;32.00;;;13.80;;
2966;SDS011;1493;51.496;7.210;2023-02-02T05:20:05;31.77;;;14.27;;
2966;SDS011;1493;51.496;7.210;2023-02-02T05:22:34;40.83;;;15.30;;
2966;SDS011;1493;51.496;7.210;2023-02-02T05:25:01;37.37;;;15.90;;
2966;SDS011;1493;51.496;7.210;2023-02-02T05:27:28;26.67;;;12.60;;
2966;SDS011;1493;51.496;7.210;2023-02-02T05:29:55;25.07;;;11.73;;
2966;SDS011;1493;51.496;7.210;2023-02-02T05:32:22;23.30;;;13.43;;
2966;SDS011;1493;51.496;7.210;2023-02-02T05:34:49;24.83;;;11.13;;
2966;SDS011;1493;51.496;7.210;2023-02-02T05:37:15;22.57;;;11.10;;
2966;SDS011;1493;51.496;7.210;2023-02-02T05:39:43;28.30;;;12.60;;
2966;SDS011;1493;51.496;7.210;2023-02-02T05:42:10;22.83;;;11.20;;
2966;SDS011;1493;51.496;7.210;2023-02-02T05:44:37;28.73;;;10.63;;
2966;SDS011;1493;51.496;7.210;2023-02-02T05:47:04;26.10;;;10.03;;
2966;SDS011;1493;51.496;7.210;2023-02-02T05:49:31;21.07;;;10.07;;
2966;SDS011;1493;51.496;7.210;2023-02-02T05:51:57;25.37;;;12.27;;
2966;SDS011;1493;51.496;7.210;2023-02-02T05:54:24;31.43;;;12.93;;
2966;SDS011;1493;51.496;7.210;2023-02-02T05:56:53;28.80;;;11.27;;
2966;SDS011;1493;51.496;7.210;2023-02-02T05:59:20;33.53;;;12.00;;
2966;SDS011;1493;51.496;7.210;2023-02-02T06:01:47;30.40;;;11.10;;
2966;SDS011;1493;51.496;7.210;2023-02-02T06:04:14;22.73;;;11.17;;
2966;SDS011;1493;51.496;7.210;2023-02-02T06:06:42;25.77;;;13.07;;
2966;SDS011;1493;51.496;7.210;2023-02-02T06:09:09;24.47;;;10.43;;
2966;SDS011;1493;51.496;7.210;2023-02-02T06:11:36;19.30;;;10.63;;
2966;SDS011;1493;51.496;7.210;2023-02-02T06:14:05;19.93;;;10.37;;
2966;SDS011;1493;51.496;7.210;2023-02-02T06:16:32;22.63;;;9.60;;
2966;SDS011;1493;51.496;7.210;2023-02-02T06:18:59;30.07;;;12.23;;
2966;SDS011;1493;51.496;7.210;2023-02-02T06:21:29;30.03;;;11.73;;
2966;SDS011;1493;51.496;7.210;2023-02-02T06:23:56;20.17;;;10.70;;
2966;SDS011;1493;51.496;7.210;2023-02-02T06:26:23;25.67;;;10.93;;
2966;SDS011;1493;51.496;7.210;2023-02-02T06:28:51;26.10;;;11.40;;
2966;SDS011;1493;51.496;7.210;2023-02-02T06:31:20;31.87;;;11.83;;
2966;SDS011;1493;51.496;7.210;2023-02-02T06:33:51;21.80;;;11.73;;
2966;SDS011;1493;51.496;7.210;2023-02-02T06:36:18;20.27;;;9.83;;
2966;SDS011;1493;51.496;7.210;2023-02-02T06:38:47;25.93;;;11.57;;
2966;SDS011;1493;51.496;7.210;2023-02-02T06:41:14;29.80;;;11.60;;
2966;SDS011;1493;51.496;7.210;2023-02-02T06:43:41;23.80;;;12.87;;
2966;SDS011;1493;51.496;7.210;2023-02-02T06:46:08;26.90;;;12.77;;
2966;SDS011;1493;51.496;7.210;2023-02-02T06:48:36;21.93;;;12.10;;
2966;SDS011;1493;51.496;7.210;2023-02-02T06:51:03;24.30;;;11.10;;
2966;SDS011;1493;51.496;7.210;2023-02-02T06:53:30;30.90;;;13.47;;
2966;SDS011;1493;51.496;7.210;2023-02-02T06:55:58;25.23;;;10.90;;
2966;SDS011;1493;51.496;7.210;2023-02-02T06:58:26;22.37;;;10.70;;
2966;SDS011;1493;51.496;7.210;2023-02-02T07:00:54;25.40;;;10.63;;
2966;SDS011;1493;51.496;7.210;2023-02-02T07:03:21;31.63;;;12.50;;
2966;SDS011;1493;51.496;7.210;2023-02-02T07:05:49;38.73;;;14.17;;
2966;SDS011;1493;51.496;7.210;2023-02-02T07:08:16;27.63;;;10.90;;
2966;SDS011;1493;51.496;7.210;2023-02-02T07:10:43;27.50;;;11.93;;
2966;SDS011;1493;51.496;7.210;2023-02-02T07:13:09;31.83;;;12.20;;
2966;SDS011;1493;51.496;7.210;2023-02-02T07:15:37;24.83;;;11.40;;
2966;SDS011;1493;51.496;7.210;2023-02-02T07:18:04;17.43;;;10.47;;
2966;SDS011;1493;51.496;7.210;2023-02-02T07:20:31;23.50;;;11.17;;
2966;SDS011;1493;51.496;7.210;2023-02-02T07:23:00;18.30;;;10.80;;
2966;SDS011;1493;51.496;7.210;2023-02-02T07:25:28;24.70;;;11.97;;
2966;SDS011;1493;51.496;7.210;2023-02-02T07:27:55;26.73;;;12.30;;
2966;SDS011;1493;51.496;7.210;2023-02-02T07:30:22;28.83;;;12.50;;
2966;SDS011;1493;51.496;7.210;2023-02-02T07:32:53;24.80;;;12.03;;
2966;SDS011;1493;51.496;7.210;2023-02-02T07:35:20;24.03;;;11.30;;
2966;SDS011;1493;51.496;7.210;2023-02-02T07:37:49;21.57;;;12.03;;
2966;SDS011;1493;51.496;7.210;2023-02-02T07:40:18;25.57;;;12.03;;
2966;SDS011;1493;51.496;7.210;2023-02-02T07:42:45;29.07;;;11.73;;
2966;SDS011;1493;51.496;7.210;2023-02-02T07:45:12;22.37;;;12.80;;
2966;SDS011;1493;51.496;7.210;2023-02-02T07:47:39;17.83;;;12.33;;
2966;SDS011;1493;51.496;7.210;2023-02-02T07:50:06;27.43;;;12.60;;
2966;SDS011;1493;51.496;7.210;2023-02-02T07:52:34;26.17;;;13.13;;
2966;SDS011;1493;51.496;7.210;2023-02-02T07:55:01;26.57;;;13.40;;
2966;SDS011;1493;51.496;7.210;2023-02-02T07:57:29;31.63;;;13.30;;
2966;SDS011;1493;51.496;7.210;2023-02-02T07:59:56;22.43;;;12.97;;
2966;SDS011;1493;51.496;7.210;2023-02-02T08:02:23;22.67;;;11.87;;
2966;SDS011;1493;51.496;7.210;2023-02-02T08:04:49;26.90;;;12.53;;
2966;SDS011;1493;51.496;7.210;2023-02-02T08:07:16;28.00;;;13.90;;
2966;SDS011;1493;51.496;7.210;2023-02-02T08:09:45;32.03;;;12.90;;
2966;SDS011;1493;51.496;7.210;2023-02-02T08:12:13;24.60;;;12.63;;
2966;SDS011;1493;51.496;7.210;2023-02-02T08:14:41;26.03;;;12.10;;
2966;SDS011;1493;51.496;7.210;2023-02-02T08:17:07;24.80;;;13.20;;
2966;SDS011;1493;51.496;7.210;2023-02-02T08:19:34;26.00;;;12.20;;
2966;SDS011;1493;51.496;7.210;2023-02-02T08:22:01;24.40;;;11.40;;
2966;SDS011;1493;51.496;7.210;2023-02-02T08:24:28;26.77;;;12.87;;
2966;SDS011;1493;51.496;7.210;2023-02-02T08:26:55;24.33;;;12.30;;
2966;SDS011;1493;51.496;7.210;2023-02-02T08:29:22;27.63;;;11.43;;
2966;SDS011;1493;51.496;7.210;2023-02-02T08:31:50;24.73;;;13.03;;
2966;SDS011;1493;51.496;7.210;2023-02-02T08:34:17;33.13;;;13.37;;
2966;SDS011;1493;51.496;7.210;2023-02-02T08:36:44;27.97;;;13.13;;
2966;SDS011;1493;51.496;7.210;2023-02-02T08:39:12;26.27;;;12.47;;
2966;SDS011;1493;51.496;7.210;2023-02-02T08:41:39;18.43;;;12.93;;
2966;SDS011;1493;51.496;7.210;2023-02-02T08:44:05;21.17;;;13.70;;
2966;SDS011;1493;51.496;7.210;2023-02-02T08:46:33;28.63;;;13.40;;
2966;SDS011;1493;51.496;7.210;2023-02-02T08:49:01;24.53;;;12.40;;
2966;SDS011;1493;51.496;7.210;2023-02-02T08:51:28;34.67;;;13.77;;
2966;SDS011;1493;51.496;7.210;2023-02-02T08:53:55;24.60;;;13.73;;
2966;SDS011;1493;51.496;7.210;2023-02-02T08:56:22;23.50;;;12.17;;
2966;SDS011;1493;51.496;7.210;2023-02-02T08:58:50;27.33;;;13.80;;
2966;SDS011;1493;51.496;7.210;2023-02-02T09:01:19;22.40;;;11.90;;
2966;SDS011;1493;51.496;7.210;2023-02-02T09:03:51;22.33;;;13.90;;
2966;SDS011;1493;51.496;7.210;2023-02-02T09:06:20;18.00;;;13.10;;
2966;SDS011;1493;51.496;7.210;2023-02-02T09:08:47;20.93;;;11.73;;
2966;SDS011;1493;51.496;7.210;2023-02-02T09:11:15;21.03;;;12.97;;
2966;SDS011;1493;51.496;7.210;2023-02-02T09:13:44;22.93;;;14.10;;
2966;SDS011;1493;51.496;7.210;2023-02-02T09:16:15;24.83;;;14.43;;
2966;SDS011;1493;51.496;7.210;2023-02-02T09:18:43;24.40;;;13.67;;
2966;SDS011;1493;51.496;7.210;2023-02-02T09:21:11;24.57;;;14.70;;
2966;SDS011;1493;51.496;7.210;2023-02-02T09:23:41;20.13;;;13.10;;
2966;SDS011;1493;51.496;7.210;2023-02-02T09:26:09;24.37;;;13.10;;
2966;SDS011;1493;51.496;7.210;2023-02-02T09:28:38;21.53;;;13.47;;
2966;SDS011;1493;51.496;7.210;2023-02-02T09:31:05;17.47;;;12.00;;
2966;SDS011;1493;51.496;7.210;2023-02-02T09:33:32;17.73;;;10.90;;
2966;SDS011;1493;51.496;7.210;2023-02-02T09:36:03;21.53;;;11.80;;
2966;SDS011;1493;51.496;7.210;2023-02-02T09:38:31;22.23;;;12.90;;
2966;SDS011;1493;51.496;7.210;2023-02-02T09:41:00;20.13;;;13.10;;
2966;SDS011;1493;51.496;7.210;2023-02-02T09:43:38;22.70;;;12.07;;
2966;SDS011;1493;51.496;7.210;2023-02-02T09:46:15;17.90;;;11.67;;
2966;SDS011;1493;51.496;7.210;2023-02-02T09:48:52;20.27;;;11.17;;
2966;SDS011;1493;51.496;7.210;2023-02-02T09:51:24;18.67;;;11.90;;
2966;SDS011;1493;51.496;7.210;2023-02-02T09:53:55;22.30;;;13.57;;
2966;SDS011;1493;51.496;7.210;2023-02-02T09:56:28;19.47;;;12.07;;
2966;SDS011;1493;51.496;7.210;2023-02-02T09:59:00;22.87;;;13.63;;
2966;SDS011;1493;51.496;7.210;2023-02-02T10:01:32;19.30;;;12.90;;
2966;SDS011;1493;51.496;7.210;2023-02-02T10:04:02;22.03;;;12.13;;
2966;SDS011;1493;51.496;7.210;2023-02-02T10:06:34;19.00;;;13.30;;
2966;SDS011;1493;51.496;7.210;2023-02-02T10:09:06;24.60;;;13.30;;
2966;SDS011;1493;51.496;7.210;2023-02-02T10:11:46;17.87;;;11.70;;
2966;SDS011;1493;51.496;7.210;2023-02-02T10:14:17;19.50;;;12.70;;
2966;SDS011;1493;51.496;7.210;2023-02-02T10:16:51;19.30;;;13.10;;
2966;SDS011;1493;51.496;7.210;2023-02-02T10:19:19;25.93;;;11.80;;
2966;SDS011;1493;51.496;7.210;2023-02-02T10:21:53;20.20;;;12.07;;
2966;SDS011;1493;51.496;7.210;2023-02-02T10:24:29;21.73;;;12.63;;
2966;SDS011;1493;51.496;7.210;2023-02-02T10:27:01;17.70;;;11.40;;
2966;SDS011;1493;51.496;7.210;2023-02-02T10:29:31;22.97;;;12.90;;
2966;SDS011;1493;51.496;7.210;2023-02-02T10:32:13;25.37;;;16.83;;
2966;SDS011;1493;51.496;7.210;2023-02-02T10:34:52;32.40;;;13.60;;
2966;SDS011;1493;51.496;7.210;2023-02-02T10:37:30;23.73;;;11.93;;
2966;SDS011;1493;51.496;7.210;2023-02-02T10:40:06;22.90;;;13.07;;
2966;SDS011;1493;51.496;7.210;2023-02-02T10:42:44;17.63;;;10.70;;
2966;SDS011;1493;51.496;7.210;2023-02-02T10:45:35;18.33;;;11.13;;
2966;SDS011;1493;51.496;7.210;2023-02-02T10:48:04;27.17;;;12.47;;
2966;SDS011;1493;51.496;7.210;2023-02-02T10:50:39;22.30;;;11.20;;
2966;SDS011;1493;51.496;7.210;2023-02-02T10:53:09;25.07;;;12.67;;
2966;SDS011;1493;51.496;7.210;2023-02-02T10:55:42;20.90;;;13.10;;
2966;SDS011;1493;51.496;7.210;2023-02-02T10:58:21;26.53;;;13.17;;
2966;SDS011;1493;51.496;7.210;2023-02-02T11:00:53;18.73;;;10.90;;
2966;SDS011;1493;51.496;7.210;2023-02-02T11:03:22;21.40;;;11.70;;
2966;SDS011;1493;51.496;7.210;2023-02-02T11:05:52;18.83;;;10.97;;
2966;SDS011;1493;51.496;7.210;2023-02-02T11:08:37;16.83;;;10.47;;
2966;SDS011;1493;51.496;7.210;2023-02-02T11:11:11;23.80;;;10.53;;
2966;SDS011;1493;51.496;7.210;2023-02-02T11:13:45;15.90;;;9.97;;
2966;SDS011;1493;51.496;7.210;2023-02-02T11:16:19;24.67;;;10.40;;
2966;SDS011;1493;51.496;7.210;2023-02-02T11:19:05;26.47;;;11.83;;
2966;SDS011;1493;51.496;7.210;2023-02-02T11:21:48;16.97;;;10.03;;
2966;SDS011;1493;51.496;7.210;2023-02-02T11:24:19;16.40;;;10.63;;
2966;SDS011;1493;51.496;7.210;2023-02-02T11:26:49;30.70;;;11.53;;
2966;SDS011;1493;51.496;7.210;2023-02-02T11:29:22;20.63;;;10.03;;
2966;SDS011;1493;51.496;7.210;2023-02-02T11:31:52;18.77;;;8.33;;
2966;SDS011;1493;51.496;7.210;2023-02-02T11:34:19;19.43;;;9.40;;
2966;SDS011;1493;51.496;7.210;2023-02-02T11:36:58;16.97;;;9.67;;
2966;SDS011;1493;51.496;7.210;2023-02-02T11:39:27;18.77;;;10.50;;
2966;SDS011;1493;51.496;7.210;2023-02-02T11:41:57;23.80;;;11.40;;
2966;SDS011;1493;51.496;7.210;2023-02-02T11:44:31;23.90;;;10.57;;
2966;SDS011;1493;51.496;7.210;2023-02-02T11:47:00;20.37;;;9.63;;
2966;SDS011;1493;51.496;7.210;2023-02-02T11:49:29;23.27;;;10.60;;
2966;SDS011;1493;51.496;7.210;2023-02-02T11:52:07;20.47;;;10.63;;
2966;SDS011;1493;51.496;7.210;2023-02-02T11:54:44;15.43;;;8.53;;
2966;SDS011;1493;51.496;7.210;2023-02-02T11:57:15;16.20;;;8.53;;
2966;SDS011;1493;51.496;7.210;2023-02-02T11:59:45;12.00;;;8.70;;
2966;SDS011;1493;51.496;7.210;2023-02-02T12:02:21;26.70;;;10.23;;
2966;SDS011;1493;51.496;7.210;2023-02-02T12:04:51;32.27;;;9.10;;
2966;SDS011;1493;51.496;7.210;2023-02-02T12:07:22;17.67;;;9.07;;
2966;SDS011;1493;51.496;7.210;2023-02-02T12:09:52;13.53;;;8.40;;
2966;SDS011;1493;51.496;7.210;2023-02-02T12:12:26;14.13;;;7.93;;
2966;SDS011;1493;51.496;7.210;2023-02-02T12:15:04;19.33;;;8.30;;
2966;SDS011;1493;51.496;7.210;2023-02-02T12:17:41;22.30;;;7.80;;
2966;SDS011;1493;51.496;7.210;2023-02-02T12:20:12;13.33;;;8.27;;
2966;SDS011;1493;51.496;7.210;2023-02-02T12:22:57;20.00;;;10.13;;
2966;SDS011;1493;51.496;7.210;2023-02-02T12:25:38;17.60;;;8.37;;
2966;SDS011;1493;51.496;7.210;2023-02-02T12:28:16;16.73;;;8.97;;
2966;SDS011;1493;51.496;7.210;2023-02-02T12:30:57;16.60;;;7.63;;
2966;SDS011;1493;51.496;7.210;2023-02-02T12:33:33;14.80;;;8.27;;
2966;SDS011;1493;51.496;7.210;2023-02-02T12:36:09;17.73;;;7.87;;
2966;SDS011;1493;51.496;7.210;2023-02-02T12:38:51;16.97;;;9.37;;
2966;SDS011;1493;51.496;7.210;2023-02-02T12:41:34;17.40;;;9.57;;
2966;SDS011;1493;51.496;7.210;2023-02-02T12:44:10;19.80;;;9.47;;
2966;SDS011;1493;51.496;7.210;2023-02-02T12:46:47;17.50;;;10.80;;
2966;SDS011;1493;51.496;7.210;2023-02-02T12:49:35;27.17;;;12.00;;
2966;SDS011;1493;51.496;7.210;2023-02-02T12:52:16;18.63;;;10.33;;
2966;SDS011;1493;51.496;7.210;2023-02-02T12:54:57;19.90;;;12.00;;
2966;SDS011;1493;51.496;7.210;2023-02-02T12:57:39;13.23;;;10.10;;
2966;SDS011;1493;51.496;7.210;2023-02-02T13:03:21;15.83;;;11.60;;
2966;SDS011;1493;51.496;7.210;2023-02-02T13:05:57;20.70;;;10.70;;
2966;SDS011;1493;51.496;7.210;2023-02-02T13:08:40;23.30;;;13.67;;
2966;SDS011;1493;51.496;7.210;2023-02-02T13:11:13;26.00;;;13.67;;
2966;SDS011;1493;51.496;7.210;2023-02-02T13:13:59;20.30;;;13.60;;
2966;SDS011;1493;51.496;7.210;2023-02-02T13:16:34;23.13;;;14.70;;
2966;SDS011;1493;51.496;7.210;2023-02-02T13:19:05;22.50;;;14.77;;
2966;SDS011;1493;51.496;7.210;2023-02-02T13:21:35;20.80;;;14.40;;
2966;SDS011;1493;51.496;7.210;2023-02-02T13:24:04;26.40;;;15.10;;
2966;SDS011;1493;51.496;7.210;2023-02-02T13:26:33;24.03;;;14.63;;
2966;SDS011;1493;51.496;7.210;2023-02-02T13:29:04;26.50;;;14.70;;
2966;SDS011;1493;51.496;7.210;2023-02-02T13:31:39;23.30;;;14.60;;
2966;SDS011;1493;51.496;7.210;2023-02-02T13:34:14;26.80;;;15.30;;
2966;SDS011;1493;51.496;7.210;2023-02-02T13:36:49;25.90;;;15.57;;
2966;SDS011;1493;51.496;7.210;2023-02-02T13:39:20;26.83;;;16.07;;
2966;SDS011;1493;51.496;7.210;2023-02-02T13:41:54;23.87;;;16.37;;
2966;SDS011;1493;51.496;7.210;2023-02-02T13:44:23;24.20;;;13.43;;
2966;SDS011;1493;51.496;7.210;2023-02-02T13:46:58;21.77;;;12.13;;
2966;SDS011;1493;51.496;7.210;2023-02-02T13:49:30;23.00;;;13.00;;
2966;SDS011;1493;51.496;7.210;2023-02-02T13:52:08;22.80;;;10.10;;
2966;SDS011;1493;51.496;7.210;2023-02-02T13:54:50;24.70;;;13.27;;
2966;SDS011;1493;51.496;7.210;2023-02-02T13:57:58;27.50;;;10.80;;
2966;SDS011;1493;51.496;7.210;2023-02-02T14:00:54;20.70;;;11.97;;
2966;SDS011;1493;51.496;7.210;2023-02-02T14:03:29;21.03;;;10.83;;
2966;SDS011;1493;51.496;7.210;2023-02-02T14:06:05;22.00;;;12.50;;
2966;SDS011;1493;51.496;7.210;2023-02-02T14:08:35;21.87;;;13.73;;
2966;SDS011;1493;51.496;7.210;2023-02-02T14:11:03;23.57;;;13.00;;
2966;SDS011;1493;51.496;7.210;2023-02-02T14:13:35;22.70;;;11.10;;
2966;SDS011;1493;51.496;7.210;2023-02-02T14:19:12;20.27;;;12.53;;
2966;SDS011;1493;51.496;7.210;2023-02-02T14:22:01;23.20;;;12.60;;
2966;SDS011;1493;51.496;7.210;2023-02-02T14:24:44;22.57;;;11.07;;
2966;SDS011;1493;51.496;7.210;2023-02-02T14:30:13;19.93;;;9.80;;
2966;SDS011;1493;51.496;7.210;2023-02-02T14:32:46;15.60;;;9.40;;
2966;SDS011;1493;51.496;7.210;2023-02-02T14:38:23;18.07;;;9.37;;
2966;SDS011;1493;51.496;7.210;2023-02-02T14:41:03;23.30;;;11.30;;
2966;SDS011;1493;51.496;7.210;2023-02-02T14:43:45;14.27;;;10.37;;
2966;SDS011;1493;51.496;7.210;2023-02-02T14:46:19;22.03;;;11.30;;
2966;SDS011;1493;51.496;7.210;2023-02-02T14:51:43;22.27;;;12.90;;
2966;SDS011;1493;51.496;7.210;2023-02-02T14:54:19;21.37;;;13.53;;
2966;SDS011;1493;51.496;7.210;2023-02-02T14:56:54;20.60;;;14.20;;
2966;SDS011;1493;51.496;7.210;2023-02-02T14:59:23;23.83;;;14.40;;
2966;SDS011;1493;51.496;7.210;2023-02-02T15:01:55;23.30;;;13.60;;
2966;SDS011;1493;51.496;7.210;2023-02-02T15:04:27;24.17;;;13.50;;
2966;SDS011;1493;51.496;7.210;2023-02-02T15:06:54;20.60;;;12.87;;
2966;SDS011;1493;51.496;7.210;2023-02-02T15:09:34;25.37;;;13.80;;
2966;SDS011;1493;51.496;7.210;2023-02-02T15:12:14;19.37;;;11.37;;
2966;SDS011;1493;51.496;7.210;2023-02-02T15:14:54;21.83;;;12.20;;
2966;SDS011;1493;51.496;7.210;2023-02-02T15:17:27;20.77;;;12.50;;
2966;SDS011;1493;51.496;7.210;2023-02-02T15:20:03;24.80;;;12.57;;
2966;SDS011;1493;51.496;7.210;2023-02-02T15:22:34;22.90;;;10.80;;
2966;SDS011;1493;51.496;7.210;2023-02-02T15:25:12;19.27;;;12.70;;
2966;SDS011;1493;51.496;7.210;2023-02-02T15:27:49;17.10;;;9.97;;
2966;SDS011;1493;51.496;7.210;2023-02-02T15:30:22;21.43;;;11.40;;
2966;SDS011;1493;51.496;7.210;2023-02-02T15:32:51;21.93;;;10.47;;
2966;SDS011;1493;51.496;7.210;2023-02-02T15:35:19;17.57;;;10.90;;
2966;SDS011;1493;51.496;7.210;2023-02-02T15:37:50;18.33;;;11.17;;
2966;SDS011;1493;51.496;7.210;2023-02-02T15:40:23;20.90;;;10.13;;
2966;SDS011;1493;51.496;7.210;2023-02-02T15:42:53;14.60;;;11.17;;
2966;SDS011;1493;51.496;7.210;2023-02-02T15:45:35;17.30;;;10.30;;
2966;SDS011;1493;51.496;7.210;2023-02-02T15:48:21;18.63;;;12.30;;
2966;SDS011;1493;51.496;7.210;2023-02-02T15:50:50;23.17;;;13.27;;